Terminal Aerodrome Forecast
Issued by NWS

Home | Current Version | Previous Version | Text Only | Print | Product List | Glossary On
Versions: 1 2 3 4 5 6 7 8 9 10 11 12 13 14 15 16 17 18 19
000
FTAK31 PAJN 010500
TAFAWG
TAF
PAWG 010535Z 0106/0206 12010KT P6SM SCT060 BKN120
      TEMPO 0108/0112 12013G18KT
     FM011500 08011G18KT P6SM BKN150 WS020/06025KT
     FM012000 08015G25KT P6SM SCT100 BKN200 WS020/06035KT
     FM020300 08011KT P6SM BKN050 BKN100
      AMD LTD TO CLD VIS AND WIND 0106/0115=

USA.gov is the U.S. government's official web portal to all federal, state and local government web resources and services.